Ashland, South Carolina
Current Conditions -  °F | °C
As of 6:55 PM on Saturday 22 Nov 2014 (Local Time) from KCDN Reporting Station
Clear Clear  
Wind Chill:   Ceiling: Unl
Heat Index:   Visibility: 10mi
Dew Point: -1°   Wind: 0mph
Humidity: 65%   Direction: NA
Pressure: 30.36"   Gusts: NA
Location:  34.2324°N, 80.2824°W
Report Text: KCDN 222355Z AUTO 00000KT 10SM CLR 05/M01 A3036 RMK AO2 TSNO
Loading
Personal Weather Stations






























Interactive Weather Map New forecast layout! Learn more

10-Day Weather Forecast

Advertisements
Track Severe Weather on mobile